createdAt,value
2019-05-03T00:02:02.192Z,14.93
2019-05-03T00:04:46.100Z,14.78
2019-05-03T00:07:22.368Z,16.55
2019-05-03T00:15:07.649Z,16.70
2019-05-03T00:17:44.101Z,13.43
2019-05-03T00:20:26.398Z,15.13
2019-05-03T00:23:02.910Z,14.03
2019-05-03T00:25:45.310Z,17.57
2019-05-03T00:28:21.723Z,13.50
2019-05-03T00:31:04.438Z,16.67
2019-05-03T00:33:42.225Z,15.18
2019-05-03T00:36:49.618Z,18.70
2019-05-03T00:39:32.463Z,14.00
2019-05-03T00:42:15.408Z,15.58
2019-05-03T00:44:43.704Z,18.42
2019-05-03T00:47:25.478Z,15.35
2019-05-03T00:50:15.346Z,20.25
2019-05-03T00:52:58.162Z,17.50
2019-05-03T00:55:33.918Z,17.35
2019-05-03T00:58:16.458Z,16.48
2019-05-03T01:00:52.957Z,16.37
2019-05-03T01:06:04.645Z,17.67
2019-05-03T01:08:41.925Z,22.53
2019-05-03T01:11:24.979Z,18.37
2019-05-03T01:14:02.624Z,18.87
2019-05-03T01:21:38.361Z,23.07
2019-05-03T01:24:21.948Z,28.77
2019-05-03T01:26:57.298Z,24.13
2019-05-03T01:29:39.817Z,25.62
2019-05-03T01:32:15.375Z,36.03
2019-05-03T01:34:58.542Z,55.83
2019-05-03T01:37:34.610Z,39.15
2019-05-03T01:40:16.422Z,45.60
2019-05-03T01:42:52.020Z,57.80
2019-05-03T01:45:35.168Z,45.37
2019-05-03T01:48:32.274Z,43.75
2019-05-03T01:51:32.585Z,47.30
2019-05-03T01:54:22.885Z,45.43
2019-05-03T01:59:34.202Z,46.37
2019-05-03T02:02:36.781Z,44.73
2019-05-03T02:05:44.264Z,43.37
2019-05-03T02:08:26.668Z,44.03
2019-05-03T02:11:02.835Z,40.57
2019-05-03T02:13:45.510Z,41.37
2019-05-03T02:16:21.981Z,35.37
2019-05-03T02:19:04.922Z,40.28
2019-05-03T02:21:33.183Z,45.35
2019-05-03T02:24:02.564Z,43.43
2019-05-03T02:26:45.754Z,42.90
2019-05-03T02:29:27.942Z,40.27
2019-05-03T02:32:03.693Z,36.53
2019-05-03T02:34:53.569Z,33.40
2019-05-03T02:37:36.882Z,36.00
2019-05-03T02:40:13.700Z,35.03
2019-05-03T02:46:06.347Z,39.83
2019-05-03T02:51:17.032Z,39.30
2019-05-03T02:54:05.672Z,35.98
2019-05-03T02:56:41.991Z,38.17
2019-05-03T03:01:55.575Z,40.20
2019-05-03T03:04:45.387Z,32.33
2019-05-03T03:07:28.578Z,33.05
2019-05-03T03:10:06.381Z,26.55
2019-05-03T03:12:51.792Z,23.40
2019-05-03T03:15:28.536Z,17.75
2019-05-03T03:18:15.728Z,17.92
2019-05-03T03:20:55.340Z,18.25
2019-05-03T03:23:41.737Z,17.90
2019-05-03T03:26:34.561Z,22.35
2019-05-03T03:31:51.886Z,18.00
2019-05-03T03:34:27.564Z,17.60
2019-05-03T03:37:10.585Z,16.02
2019-05-03T03:39:38.456Z,17.27
2019-05-03T03:42:08.124Z,18.20
2019-05-03T03:44:51.124Z,18.85
2019-05-03T03:47:20.659Z,16.45
2019-05-03T03:50:06.096Z,17.73
2019-05-03T03:52:55.986Z,17.05
2019-05-03T03:55:35.330Z,16.57
2019-05-03T03:58:22.882Z,16.60
2019-05-03T04:01:05.853Z,16.70
2019-05-03T04:03:41.571Z,15.68
2019-05-03T04:06:09.137Z,14.15
2019-05-03T04:08:45.547Z,16.23
2019-05-03T04:11:21.161Z,16.87
2019-05-03T04:13:49.840Z,16.57
2019-05-03T04:16:56.817Z,13.90
2019-05-03T04:19:36.456Z,15.55
2019-05-03T04:24:51.611Z,14.05
2019-05-03T04:32:29.048Z,14.90
2019-05-03T04:35:11.828Z,17.85
2019-05-03T04:38:00.592Z,19.05
2019-05-03T04:40:45.632Z,15.00
2019-05-03T04:43:26.141Z,17.20
2019-05-03T04:46:16.405Z,12.28
2019-05-03T04:48:52.749Z,13.60
2019-05-03T04:51:35.300Z,17.40
2019-05-03T04:54:39.797Z,16.90
2019-05-03T04:57:36.388Z,14.58
2019-05-03T05:00:00.099Z,14.95
2019-05-03T05:02:42.485Z,15.70
2019-05-03T05:05:19.119Z,20.30
2019-05-03T05:08:05.934Z,14.13
2019-05-03T05:10:46.700Z,14.85
2019-05-03T05:13:31.970Z,20.02
2019-05-03T05:16:07.459Z,14.45
2019-05-03T05:18:56.526Z,17.12
2019-05-03T05:21:39.124Z,14.40
2019-05-03T05:24:21.710Z,16.48
2019-05-03T05:27:14.607Z,15.03
2019-05-03T05:30:00.195Z,18.27
2019-05-03T05:32:38.026Z,18.32
2019-05-03T05:35:24.834Z,18.32
2019-05-03T05:38:00.848Z,17.40
2019-05-03T05:40:45.110Z,27.67
2019-05-03T05:43:21.758Z,20.40
2019-05-03T05:46:05.531Z,20.50
2019-05-03T05:48:46.946Z,20.97
2019-05-03T05:51:30.072Z,21.48
2019-05-03T05:54:06.746Z,25.15
2019-05-03T05:57:05.158Z,19.75
2019-05-03T06:00:04.994Z,23.70
2019-05-03T06:02:46.940Z,20.50
2019-05-03T06:05:25.252Z,22.80
2019-05-03T06:13:54.618Z,17.23
2019-05-03T06:16:34.968Z,15.60
2019-05-03T06:19:28.636Z,16.70
2019-05-03T06:22:29.879Z,13.98
2019-05-03T06:27:47.434Z,8.48
2019-05-03T06:30:51.920Z,12.75
2019-05-03T06:33:28.256Z,12.20
2019-05-03T06:36:10.489Z,10.80
2019-05-03T06:38:46.308Z,10.90
2019-05-03T06:41:30.216Z,6.50
2019-05-03T06:44:06.646Z,12.10
2019-05-03T06:46:50.498Z,8.78
2019-05-03T06:49:18.966Z,9.28
2019-05-03T06:52:01.900Z,9.73
2019-05-03T06:54:51.515Z,10.98
2019-05-03T06:57:35.390Z,8.03
2019-05-03T07:00:35.168Z,6.55
2019-05-03T07:06:11.298Z,6.77
2019-05-03T07:09:19.846Z,8.05
2019-05-03T07:12:08.842Z,8.37
2019-05-03T07:14:54.851Z,8.33
2019-05-03T07:17:31.386Z,7.50
2019-05-03T07:22:44.512Z,5.13
2019-05-03T07:25:21.198Z,7.23
2019-05-03T07:28:05.059Z,11.17
2019-05-03T07:30:41.236Z,11.03
2019-05-03T07:33:29.921Z,10.53
2019-05-03T07:36:06.206Z,9.10
2019-05-03T07:38:48.160Z,9.83
2019-05-03T07:41:26.897Z,7.10
2019-05-03T07:44:09.018Z,8.60
2019-05-03T07:46:45.319Z,8.63
2019-05-03T07:49:28.152Z,9.40
2019-05-03T07:51:56.447Z,7.10
2019-05-03T07:54:39.064Z,7.77
2019-05-03T07:57:14.930Z,10.33
2019-05-03T07:59:58.904Z,8.50
2019-05-03T08:02:47.983Z,11.03
2019-05-03T08:05:30.674Z,10.03
2019-05-03T08:08:06.308Z,6.80
2019-05-03T08:10:49.328Z,6.97
2019-05-03T08:13:32.078Z,8.37
2019-05-03T08:18:37.981Z,9.60
2019-05-03T08:21:15.022Z,9.47
2019-05-03T08:28:55.738Z,8.30
2019-05-03T08:34:49.950Z,11.23
2019-05-03T08:37:29.603Z,9.33
2019-05-03T08:40:15.455Z,7.77
2019-05-03T08:42:51.077Z,11.20
2019-05-03T08:45:36.667Z,8.63
2019-05-03T08:48:14.895Z,12.33
2019-05-03T08:51:00.485Z,11.90
2019-05-03T08:53:51.137Z,10.57
2019-05-03T08:59:04.531Z,11.60
2019-05-03T09:01:40.107Z,9.17
2019-05-03T09:04:34.237Z,15.23
2019-05-03T09:07:00.422Z,14.87
2019-05-03T09:09:41.100Z,13.63
2019-05-03T09:12:18.578Z,10.80
2019-05-03T09:17:30.886Z,10.83
2019-05-03T09:20:06.154Z,11.97
2019-05-03T09:25:18.034Z,9.30
2019-05-03T09:28:00.989Z,8.23
2019-05-03T09:30:37.511Z,6.30
2019-05-03T09:38:05.975Z,7.37
2019-05-03T09:40:51.925Z,5.83
2019-05-03T09:43:35.788Z,11.10
2019-05-03T09:46:26.497Z,9.73
2019-05-03T09:49:13.674Z,12.00
2019-05-03T09:51:48.525Z,8.40
2019-05-03T09:54:39.595Z,7.90
2019-05-03T09:57:19.071Z,8.40
2019-05-03T10:00:04.955Z,6.37
2019-05-03T10:02:35.303Z,7.00
2019-05-03T10:05:17.291Z,4.97
2019-05-03T10:08:01.012Z,9.50
2019-05-03T10:10:46.986Z,7.60
2019-05-03T10:13:26.611Z,7.83
2019-05-03T10:16:09.055Z,11.83
2019-05-03T10:18:45.943Z,9.10
2019-05-03T10:21:31.503Z,7.07
2019-05-03T10:24:07.131Z,6.30
2019-05-03T10:29:19.129Z,6.10
2019-05-03T10:32:15.124Z,8.07
2019-05-03T10:34:58.455Z,9.50
2019-05-03T10:37:40.882Z,7.87
2019-05-03T10:40:17.149Z,5.93
2019-05-03T10:42:59.517Z,5.20
2019-05-03T10:45:40.652Z,10.83
2019-05-03T10:48:24.618Z,8.60
2019-05-03T10:51:04.735Z,12.00
2019-05-03T10:53:50.251Z,5.30
2019-05-03T10:56:37.659Z,8.27
2019-05-03T10:59:20.290Z,5.73
2019-05-03T11:01:48.639Z,3.60
2019-05-03T11:04:32.139Z,4.93
2019-05-03T11:07:21.680Z,6.00
2019-05-03T11:15:03.020Z,6.10
2019-05-03T11:17:39.209Z,5.90
2019-05-03T11:20:29.049Z,7.17
2019-05-03T11:23:02.354Z,6.57
2019-05-03T11:25:37.005Z,6.67
2019-05-03T11:28:35.398Z,7.30
2019-05-03T11:31:37.107Z,5.13
2019-05-03T11:34:25.364Z,9.27
2019-05-03T11:37:25.086Z,12.00
2019-05-03T11:40:09.668Z,7.30
2019-05-03T11:42:46.113Z,7.40
2019-05-03T11:45:15.226Z,6.20
2019-05-03T11:47:58.733Z,5.63
2019-05-03T11:50:35.166Z,6.70
2019-05-03T11:53:17.726Z,6.27
2019-05-03T11:55:55.208Z,6.43
2019-05-03T11:58:38.212Z,5.50
2019-05-03T12:01:25.408Z,8.47
2019-05-03T12:04:11.706Z,8.60
2019-05-03T12:06:47.270Z,5.13
2019-05-03T12:09:30.112Z,5.47
2019-05-03T12:12:08.185Z,8.33
2019-05-03T12:14:50.560Z,4.90
2019-05-03T12:17:29.779Z,5.53
2019-05-03T12:22:39.644Z,5.97
2019-05-03T12:25:17.512Z,4.03
2019-05-03T12:28:00.842Z,6.37
2019-05-03T12:30:31.359Z,7.93
2019-05-03T12:33:15.355Z,7.60
2019-05-03T12:35:50.299Z,6.00
2019-05-03T12:38:34.938Z,5.03
2019-05-03T12:41:25.448Z,6.73
2019-05-03T12:46:38.383Z,9.00
2019-05-03T12:49:16.948Z,6.47
2019-05-03T12:56:53.024Z,6.30
2019-05-03T12:59:47.585Z,5.90
2019-05-03T13:05:26.388Z,7.00
2019-05-03T13:08:24.824Z,7.87
2019-05-03T13:13:38.393Z,6.33
2019-05-03T13:16:25.046Z,6.43
2019-05-03T13:19:01.340Z,7.23
2019-05-03T13:21:45.022Z,9.13
2019-05-03T13:24:23.232Z,7.87
2019-05-03T13:27:05.640Z,5.70
2019-05-03T13:29:41.668Z,10.30
2019-05-03T13:37:19.392Z,7.43
2019-05-03T13:40:07.679Z,7.30
2019-05-03T13:42:57.239Z,9.33
2019-05-03T13:45:29.438Z,6.17
2019-05-03T13:48:19.891Z,7.23
2019-05-03T13:50:55.175Z,5.43
2019-05-03T13:55:56.718Z,5.83
2019-05-03T13:58:33.012Z,6.00
2019-05-03T14:01:16.580Z,9.43
2019-05-03T14:03:54.528Z,8.70
2019-05-03T14:09:07.791Z,8.97
2019-05-03T14:11:55.194Z,13.47
2019-05-03T14:14:32.498Z,9.50
2019-05-03T14:17:00.130Z,8.63
2019-05-03T14:19:34.792Z,10.70
2019-05-03T14:22:19.212Z,6.53
2019-05-03T14:25:04.496Z,5.80
2019-05-03T14:27:54.994Z,7.23
2019-05-03T14:30:38.866Z,11.60
2019-05-03T14:33:15.276Z,7.30
2019-05-03T14:36:07.000Z,8.87
2019-05-03T14:38:51.272Z,6.90
2019-05-03T14:41:36.927Z,7.73
2019-05-03T14:44:15.594Z,5.70
2019-05-03T14:46:59.172Z,9.50
2019-05-03T14:49:35.430Z,8.63
2019-05-03T14:52:17.957Z,12.50
2019-05-03T14:54:55.973Z,8.43
2019-05-03T14:57:44.402Z,9.43
2019-05-03T15:00:31.377Z,8.77
2019-05-03T15:03:15.903Z,6.90
2019-05-03T15:05:44.760Z,7.27
2019-05-03T15:08:27.525Z,10.57
2019-05-03T15:11:22.937Z,52.63
2019-05-03T15:14:29.392Z,12.07
2019-05-03T15:17:00.897Z,8.00
2019-05-03T15:19:45.392Z,14.07
2019-05-03T15:22:22.300Z,12.30
2019-05-03T15:25:05.164Z,9.80
2019-05-03T15:27:40.767Z,7.77
2019-05-03T15:30:23.091Z,9.23
2019-05-03T15:33:00.845Z,12.33
2019-05-03T15:40:41.404Z,8.10
2019-05-03T15:43:34.817Z,13.10
2019-05-03T15:46:38.848Z,11.23
2019-05-03T15:49:08.361Z,9.30
2019-05-03T15:51:53.851Z,10.87
2019-05-03T15:54:44.506Z,12.20
2019-05-03T15:57:26.997Z,9.67
2019-05-03T16:00:02.650Z,10.30
2019-05-03T16:02:44.807Z,11.20
2019-05-03T16:05:21.230Z,9.40
2019-05-03T16:08:04.614Z,10.00
2019-05-03T16:10:41.645Z,7.73
2019-05-03T16:13:25.316Z,11.63
2019-05-03T16:16:01.334Z,11.63
2019-05-03T16:23:29.291Z,8.63
2019-05-03T16:26:05.299Z,14.50
2019-05-03T16:34:09.753Z,7.37
2019-05-03T16:36:52.072Z,8.33
2019-05-03T16:39:28.368Z,9.57
2019-05-03T16:42:10.807Z,9.10
2019-05-03T16:44:46.617Z,12.20
2019-05-03T16:52:32.192Z,20.13
2019-05-03T16:55:16.466Z,7.17
2019-05-03T16:57:58.749Z,12.20
2019-05-03T17:00:27.190Z,9.27
2019-05-03T17:03:10.305Z,11.90
2019-05-03T17:11:39.441Z,7.03
2019-05-03T17:14:21.465Z,14.07
2019-05-03T17:17:00.159Z,12.80
2019-05-03T17:19:44.801Z,10.63
2019-05-03T17:22:25.179Z,10.27
2019-05-03T17:25:09.065Z,7.50
2019-05-03T17:27:50.132Z,9.60
2019-05-03T17:32:59.771Z,7.67
2019-05-03T17:35:35.971Z,5.10
2019-05-03T17:38:18.271Z,11.57
2019-05-03T17:41:11.853Z,9.33
2019-05-03T17:44:04.962Z,14.03
2019-05-03T17:46:40.960Z,8.87
2019-05-03T17:49:24.044Z,11.33
2019-05-03T17:52:22.283Z,12.50
2019-05-03T17:55:24.452Z,8.73
2019-05-03T17:58:04.497Z,17.67
2019-05-03T18:01:07.379Z,10.83
2019-05-03T18:03:46.177Z,12.07
2019-05-03T18:09:21.949Z,8.63
2019-05-03T18:12:06.506Z,13.10
2019-05-03T18:14:49.157Z,9.57
2019-05-03T18:17:25.337Z,9.47
2019-05-03T18:20:07.388Z,9.33
2019-05-03T18:22:42.973Z,17.67
2019-05-03T18:25:25.459Z,7.60
2019-05-03T18:28:01.191Z,12.00
2019-05-03T18:30:43.109Z,11.13
2019-05-03T18:33:19.526Z,8.90
2019-05-03T18:36:02.752Z,14.70
2019-05-03T18:38:45.680Z,13.87
2019-05-03T18:41:21.169Z,12.07
2019-05-03T18:44:18.259Z,24.40
2019-05-03T18:47:11.395Z,15.70
2019-05-03T18:52:22.595Z,10.50
2019-05-03T18:55:05.098Z,11.37
2019-05-03T18:57:32.705Z,12.10
2019-05-03T19:00:15.511Z,12.27
2019-05-03T19:02:51.931Z,10.13
2019-05-03T19:05:35.875Z,12.73
2019-05-03T19:08:35.112Z,15.43
2019-05-03T19:11:35.196Z,11.57
2019-05-03T19:14:37.342Z,11.37
2019-05-03T19:17:35.646Z,13.70
2019-05-03T19:20:17.738Z,7.47
2019-05-03T19:23:00.589Z,10.67
2019-05-03T19:25:46.252Z,10.57
2019-05-03T19:28:19.023Z,7.53
2019-05-03T19:31:06.316Z,11.40
2019-05-03T19:33:42.846Z,9.47
2019-05-03T19:36:15.148Z,9.15
2019-05-03T19:39:00.109Z,13.22
2019-05-03T19:41:29.413Z,9.45
2019-05-03T19:44:20.454Z,8.35
2019-05-03T19:46:48.278Z,9.73
2019-05-03T19:49:35.386Z,18.65
2019-05-03T19:52:05.211Z,9.97
2019-05-03T19:54:55.463Z,11.43
2019-05-03T19:57:28.324Z,10.60
2019-05-03T20:00:15.943Z,13.03
2019-05-03T20:03:00.647Z,12.35
2019-05-03T20:08:45.899Z,13.65
2019-05-03T20:11:29.176Z,9.18
2019-05-03T20:14:11.349Z,12.93
2019-05-03T20:19:25.791Z,16.97
2019-05-03T20:22:10.198Z,13.08
2019-05-03T20:24:46.190Z,11.57
2019-05-03T20:27:32.148Z,10.43
2019-05-03T20:30:09.830Z,12.68
2019-05-03T20:35:18.765Z,34.80
2019-05-03T20:37:57.737Z,13.98
2019-05-03T20:40:26.141Z,12.73
2019-05-03T20:43:25.659Z,14.85
2019-05-03T20:46:10.874Z,15.32
2019-05-03T20:49:10.746Z,14.60
2019-05-03T20:51:51.048Z,10.40
2019-05-03T20:54:32.169Z,19.85
2019-05-03T20:57:08.448Z,10.75
2019-05-03T20:59:54.380Z,13.55
2019-05-03T21:02:30.889Z,18.62
2019-05-03T21:05:26.745Z,22.58
2019-05-03T21:07:54.993Z,18.15
2019-05-03T21:13:08.791Z,17.15
2019-05-03T21:16:14.650Z,50.80
2019-05-03T21:19:02.363Z,14.30
2019-05-03T21:21:44.584Z,14.53
2019-05-03T21:24:19.834Z,15.28
2019-05-03T21:29:30.826Z,19.57
2019-05-03T21:32:19.384Z,20.30
2019-05-03T21:37:35.052Z,16.20
2019-05-03T21:40:11.866Z,21.00
2019-05-03T21:47:55.831Z,19.42
2019-05-03T21:50:39.460Z,15.63
2019-05-03T21:53:28.180Z,17.07
2019-05-03T21:56:10.763Z,16.23
2019-05-03T21:58:46.752Z,15.40
2019-05-03T22:01:29.218Z,15.80
2019-05-03T22:04:05.748Z,16.97
2019-05-03T22:06:48.582Z,18.40
2019-05-03T22:09:24.969Z,35.78
2019-05-03T22:12:07.885Z,25.32
2019-05-03T22:15:05.154Z,20.52
2019-05-03T22:18:01.622Z,20.17
2019-05-03T22:20:55.439Z,21.65
2019-05-03T22:23:56.363Z,20.10
2019-05-03T22:26:50.523Z,21.97
2019-05-03T22:29:35.445Z,30.43
2019-05-03T22:32:10.529Z,32.67
2019-05-03T22:34:52.712Z,28.77
2019-05-03T22:37:29.272Z,26.07
2019-05-03T22:40:11.340Z,24.18
2019-05-03T22:42:47.004Z,27.05
2019-05-03T22:45:29.270Z,26.07
2019-05-03T22:48:05.560Z,23.73
2019-05-03T22:50:48.577Z,28.00
2019-05-03T22:53:25.376Z,25.70
2019-05-03T22:56:08.156Z,24.45
2019-05-03T22:58:45.709Z,27.98
2019-05-03T23:03:49.966Z,29.15
2019-05-03T23:06:25.477Z,36.65
2019-05-03T23:09:08.638Z,27.70
2019-05-03T23:11:44.867Z,28.67
2019-05-03T23:16:55.069Z,28.00
2019-05-03T23:19:45.460Z,30.75
2019-05-03T23:25:02.740Z,33.58
2019-05-03T23:27:45.578Z,27.82
2019-05-03T23:30:21.274Z,34.48
2019-05-03T23:33:04.554Z,37.63
2019-05-03T23:35:40.312Z,26.70
2019-05-03T23:38:24.690Z,31.25
2019-05-03T23:41:00.590Z,26.50
2019-05-03T23:43:45.154Z,28.32
2019-05-03T23:46:25.784Z,23.65
2019-05-03T23:49:08.272Z,20.23
2019-05-03T23:51:51.957Z,19.95
2019-05-03T23:54:35.556Z,16.40
2019-05-03T23:57:25.201Z,21.48
